Data for 09/12/2013

Time Sea-Level Adjusted Pressure Absolute Pressure Temperature Relative Humidity Dew Point Precipitation   
(mb) (inHg) (mb) (inHg) (C) (F) (%) (C) (F) (mm) (in)
00:05 1028 30.36 857 25.31 17.1 62.7 51 6.8 44.3 0 0
00:10 1028 30.36 857 25.31 17 62.5 51 7 44.5 0 0
00:15 1028 30.36 857 25.31 16.9 62.4 52 7 44.6 0 0
00:20 1028 30.36 857 25.31 16.8 62.2 52 7 44.5 0 0
00:25 1028 30.36 857 25.31 16.6 61.9 52 6.9 44.4 0 0
00:30 1028 30.36 857 25.31 16.6 61.8 52 6.8 44.3 0 0
00:35 1028 30.36 857 25.31 16.6 61.9 52 6.8 44.3 0 0
00:40 1028 30.36 857 25.31 16.5 61.8 52 6.8 44.3 0 0
00:45 1028 30.36 857 25.31 16.4 61.6 53 6.9 44.4 0 0
00:50 1028 30.36 857 25.31 16.3 61.4 53 6.7 44 0 0
00:55 1028 30.36 857 25.31 16.3 61.3 53 6.8 44.2 0 0
01:00 1028 30.36 857 25.31 16.2 61.1 53 6.6 43.9 0 0
01:05 1028 30.36 857 25.31 16.2 61.2 53 6.7 44.1 0 0
01:10 1028 30.36 857 25.31 16.2 61.1 53 6.6 44 0 0
01:15 1028 30.36 857 25.31 16.2 61.2 53 6.7 44 0 0
01:20 1028 30.36 857 25.31 16.1 61 53 6.6 43.9 0 0
01:25 1028 30.36 857 25.31 16.1 61 53 6.6 43.9 0 0
01:30 1028 30.36 857 25.31 16.1 61 53 6.6 43.9 0 0
01:35 1028 30.36 857 25.31 16.1 61 53 6.6 43.9 0 0
01:40 1028 30.36 857 25.31 16 60.7 53 6.6 43.9 0 0
01:45 1028 30.36 857 25.31 15.9 60.6 53 6.6 43.8 0 0
01:50 1028 30.36 857 25.31 15.7 60.3 55 6.7 44 0 0
01:55 1028 30.36 857 25.31 15.5 59.9 55 6.6 43.9 0 0
02:00 1028 30.36 857 25.31 15.3 59.6 56 6.6 44 0 0
02:05 1028 30.36 857 25.31 15.1 59.3 56 6.4 43.6 0 0
02:10 1028 30.36 857 25.31 15.1 59.2 56 6.6 43.9 0 0
02:15 1028 30.36 857 25.31 15 59.1 56 6.5 43.7 0 0
02:20 1028 30.36 857 25.31 15.1 59.1 56 6.4 43.5 0 0
02:25 1028 30.36 857 25.31 15.2 59.4 56 6.4 43.6 0 0
02:30 1028 30.36 857 25.31 15.2 59.3 55 6.4 43.5 0 0
02:35 1028 30.36 857 25.31 15.1 59.2 56 6.5 43.6 0 0
02:40 1028 30.36 858 25.34 14.9 58.7 57 6.4 43.5 0 0
02:45 1028 30.36 858 25.34 14.9 58.8 56 6.1 43.1 0 0
02:50 1028 30.36 858 25.34 15 59 56 6.3 43.3 0 0
02:55 1028 30.36 858 25.34 15 58.9 56 6.3 43.4 0 0
03:00 1028 30.36 858 25.34 14.9 58.8 56 6.3 43.3 0 0
03:05 1028 30.36 858 25.34 14.8 58.6 56 6.3 43.3 0 0
03:10 1028 30.36 858 25.34 14.9 58.7 56 6.2 43.2 0 0
03:15 1028 30.36 858 25.34 14.8 58.7 56 6.2 43.2 0 0
03:20 1028 30.36 858 25.34 14.8 58.6 57 6.4 43.5 0 0
03:25 1028 30.36 858 25.34 14.7 58.4 56 6.2 43.1 0 0
03:30 1028 30.36 858 25.34 14.6 58.3 57 6.2 43.2 0 0
03:35 1028 30.36 858 25.34 14.6 58.2 57 6.2 43.2 0 0
03:40 1028 30.36 858 25.34 14.6 58.2 57 6.1 43 0 0
03:45 1028 30.36 857 25.31 14.6 58.2 56 6 42.7 0 0
03:50 1028 30.36 857 25.31 14.6 58.2 56 6.1 42.9 0 0
03:55 1028 30.36 857 25.31 14.5 58.2 56 6.1 42.9 0 0
04:00 1028 30.36 857 25.31 14.5 58.1 56 6 42.7 0 0
04:05 1028 30.36 857 25.31 14.6 58.2 56 6.1 42.9 0 0
04:10 1028 30.36 857 25.31 14.4 57.9 56 5.9 42.6 0 0
04:15 1028 30.36 857 25.31 14.4 58 56 6 42.7 0 0
04:20 1028 30.36 857 25.31 14.5 58 56 5.9 42.6 0 0
04:25 1028 30.36 857 25.31 14.5 58.1 56 5.9 42.6 0 0
04:30 1028 30.36 857 25.31 14.5 58.2 56 5.9 42.5 0 0
04:35 1028 30.36 857 25.31 14.5 58 56 5.9 42.7 0 0
04:40 1028 30.36 857 25.31 14.3 57.8 56 5.8 42.5 0 0
04:45 1028 30.36 857 25.31 14.4 57.8 56 5.8 42.5 0 0
04:50 1028 30.36 857 25.31 14.4 57.8 56 5.8 42.4 0 0
04:55 1028 30.36 857 25.31 14.4 57.8 56 5.9 42.5 0 0
05:00 1028 30.36 857 25.31 14.1 57.4 57 5.9 42.6 0 0
05:05 1028 30.36 857 25.31 14.1 57.4 57 5.9 42.6 0 0
05:10 1028 30.36 857 25.31 14 57.1 58 5.8 42.4 0 0
05:15 1028 30.36 857 25.31 13.8 56.9 58 5.8 42.4 0 0
05:20 1028 30.36 857 25.31 13.8 56.8 58 5.8 42.5 0 0
05:25 1028 30.36 857 25.31 13.7 56.7 59 5.8 42.4 0 0
05:30 1028 30.36 857 25.31 13.6 56.5 59 5.8 42.5 0 0
05:35 1028 30.36 857 25.31 13.6 56.5 59 5.7 42.3 0 0
05:40 1028 30.36 857 25.31 13.6 56.6 59 5.8 42.4 0 0
05:45 1028 30.36 857 25.31 13.7 56.6 58 5.7 42.2 0 0
05:50 1028 30.36 857 25.31 13.7 56.7 58 5.7 42.3 0 0
05:55 1028 30.36 857 25.31 13.8 56.9 58 5.7 42.3 0 0
06:00 1028 30.36 857 25.31 13.8 56.8 57 5.6 42.1 0 0
06:05 1028 30.36 857 25.31 13.8 56.9 58 5.7 42.2 0 0
06:10 1028 30.36 857 25.31 13.8 56.9 58 5.7 42.3 0 0
06:15 1028 30.36 857 25.31 13.8 56.8 58 5.7 42.2 0 0
06:20 1028 30.36 857 25.31 13.8 56.9 58 5.7 42.2 0 0
06:25 1028 30.36 857 25.31 13.7 56.7 58 5.7 42.2 0 0
06:30 1028 30.36 857 25.31 13.6 56.5 59 5.8 42.4 0 0
06:35 1028 30.36 857 25.31 13.5 56.3 58 5.5 41.8 0 0
06:40 1028 30.36 857 25.31 13.6 56.5 58 5.6 42.2 0 0
06:45 1028 30.36 857 25.31 13.6 56.5 58 5.5 42 0 0
06:50 1028 30.36 857 25.31 13.7 56.7 58 5.6 42 0 0
06:55 1028 30.36 857 25.31 13.7 56.7 57 5.5 42 0 0
07:00 1028 30.36 857 25.31 13.9 57 57 5.6 42.1 0 0
07:05 1028 30.36 857 25.31 13.9 57 57 5.7 42.2 0 0
07:10 1028 30.36 857 25.31 13.9 57 57 5.5 41.9 0 0
07:15 1028 30.36 857 25.31 14 57.2 57 5.6 42.1 0 0
07:20 1028 30.36 857 25.31 14 57.3 56 5.6 42 0 0
07:25 1028 30.36 857 25.31 14.1 57.4 56 5.6 42 0 0
07:30 1028 30.36 857 25.31 14.3 57.7 55 5.4 41.7 0 0
07:35 1028 30.36 857 25.31 14.6 58.2 55 5.7 42.2 0 0
07:40 1028 30.36 857 25.31 14.6 58.3 55 5.8 42.4 0 0
07:45 1028 30.36 857 25.31 14.7 58.4 54 5.5 42 0 0
07:50 1028 30.36 857 25.31 14.8 58.7 53 5.5 42 0 0
07:55 1028 30.36 857 25.31 14.9 58.9 53 5.4 41.8 0 0
08:00 1028 30.36 857 25.31 15.1 59.2 53 5.7 42.2 0 0
08:05 1028 30.36 857 25.31 15.3 59.5 53 5.7 42.3 0 0
08:10 1028 30.36 857 25.31 15.3 59.6 52 5.7 42.3 0 0
08:15 1028 30.36 857 25.31 15.4 59.8 52 5.6 42.2 0 0
08:20 1028 30.36 857 25.31 15.5 59.9 51 5.5 42 0 0
08:25 1028 30.36 857 25.31 15.6 60.1 51 5.7 42.2 0 0
08:30 1028 30.36 857 25.31 15.7 60.3 50 5.4 41.7 0 0
08:35 1028 30.36 857 25.31 15.8 60.5 50 5.4 41.8 0 0
08:40 1028 30.36 857 25.31 15.9 60.7 50 5.5 41.9 0 0
08:45 1028 30.36 857 25.31 16.1 60.9 49 5.6 42.1 0 0
08:50 1028 30.36 857 25.31 16 60.8 51 5.9 42.6 0 0
08:55 1028 30.36 857 25.31 15.8 60.4 50 5.5 42 0 0
09:00 1028 30.36 857 25.31 15.8 60.5 51 5.8 42.4 0 0
09:05 1028 30.36 857 25.31 15.9 60.6 51 5.8 42.4 0 0
09:10 1028 30.36 857 25.31 16.1 61 51 5.9 42.7 0 0
09:15 1028 30.36 857 25.31 16.5 61.8 48 5.6 42.1 0 0
09:20 1028 30.36 857 25.31 16.7 62.1 48 5.8 42.4 0 0
09:25 1028 30.36 857 25.31 16.9 62.4 48 5.8 42.4 0 0
09:30 1028 30.36 857 25.31 16.9 62.4 49 6.2 43.1 0 0
09:35 1028 30.36 857 25.31 16.9 62.3 49 6.1 42.9 0 0
09:40 1028 30.36 857 25.31 16.9 62.5 47 5.8 42.4 0 0
09:45 1028 30.36 857 25.31 16.9 62.5 48 5.9 42.7 0 0
09:50 1028 30.36 857 25.31 16.8 62.3 48 5.8 42.5 0 0
09:55 1028 30.36 857 25.31 16.9 62.3 47 5.7 42.3 0 0
10:00 1028 30.36 857 25.31 17 62.7 47 5.6 42.1 0 0
10:05 1028 30.36 857 25.31 17.2 62.9 47 5.8 42.5 0 0
10:10 1028 30.36 857 25.31 17.2 62.9 46 5.6 42.1 0 0
10:15 1028 30.36 857 25.31 17.4 63.3 46 5.7 42.3 0 0
10:20 1028 30.36 857 25.31 17.9 64.2 44 5.6 42.1 0 0
10:25 1028 30.36 857 25.31 18.4 65.1 44 6.1 43 0 0
10:30 1028 30.36 857 25.31 18.4 65.2 45 6.5 43.7 0 0
10:35 1027 30.33 857 25.31 18.8 65.8 43 6.3 43.3 0 0
10:40 1027 30.33 857 25.31 18.5 65.4 45 6.5 43.6 0 0
10:45 1027 30.33 857 25.31 18.6 65.5 45 6.5 43.7 0 0
10:50 1027 30.33 856 25.28 18.8 65.8 43 6.2 43.1 0 0
10:55 1027 30.33 856 25.28 18.8 65.8 44 6.4 43.5 0 0
11:00 1027 30.33 856 25.28 19.1 66.5 45 7 44.5 0 0
11:05 1027 30.33 856 25.28 19.7 67.4 41 6.2 43.2 0 0
11:10 1027 30.33 856 25.28 20.6 69 43 7.6 45.7 0 0
11:15 1027 30.33 856 25.28 20.9 69.5 40 6.8 44.3 0 0
11:20 1027 30.33 856 25.28 20.7 69.2 45 8.6 47.4 0 0
11:25 1027 30.33 856 25.28 20.5 69 46 8.7 47.7 0 0
11:30 1027 30.33 856 25.28 20.2 68.3 44 7.8 46.1 0 0
11:35 1027 30.33 856 25.28 20.3 68.6 45 8.3 46.9 0 0
11:40 1027 30.33 856 25.28 20.4 68.7 46 8.4 47.1 0 0
11:45 1027 30.33 856 25.28 20.7 69.2 45 8.5 47.4 0 0
11:50 1027 30.33 856 25.28 20.8 69.5 41 7.3 45.1 0 0
11:55 1026 30.3 856 25.28 21.3 70.3 44 8.7 47.7 0 0
12:00 1026 30.3 856 25.28 21.6 70.8 37 6.5 43.6 0 0
12:05 1026 30.3 855 25.25 21.6 70.8 41 7.9 46.3 0 0
12:10 1026 30.3 855 25.25 21.4 70.5 38 6.8 44.2 0 0
12:15 1026 30.3 855 25.25 21.4 70.6 41 7.8 46.1 0 0
12:20 1026 30.3 855 25.25 21 69.7 42 7.8 46.1 0 0
12:25 1026 30.3 855 25.25 21.3 70.4 42 8 46.5 0 0
12:30 1026 30.3 855 25.25 21.5 70.7 39 7.3 45.1 0 0
12:35 1026 30.3 855 25.25 21.6 70.8 40 7.6 45.7 0 0
12:40 1026 30.3 855 25.25 21.7 71 37 6.7 44 0 0
12:45 1026 30.3 855 25.25 21.6 70.9 39 7.2 44.9 0 0
12:50 1026 30.3 855 25.25 21.7 71.1 36 6.3 43.4 0 0
12:55 1026 30.3 855 25.25 21.6 70.9 38 6.7 44.1 0 0
13:00 1026 30.3 855 25.25 21.9 71.5 38 7.2 45 0 0
13:05 1026 30.3 855 25.25 21.9 71.4 38 7 44.6 0 0
13:10 1026 30.3 855 25.25 22 71.5 39 7.4 45.4 0 0
13:15 1026 30.3 855 25.25 22.8 73.1 35 6.7 44.1 0 0
13:20 1026 30.3 855 25.25 22.6 72.7 33 5.7 42.2 0 0
13:25 1026 30.3 855 25.25 21.8 71.2 35 6 42.7 0 0
13:30 1026 30.3 855 25.25 21.5 70.7 36 5.9 42.7 0 0
13:35 1026 30.3 855 25.25 21.8 71.3 33 5 41 0 0
13:40 1025 30.27 855 25.25 22.8 73.1 34 6.2 43.2 0 0
13:45 1025 30.27 855 25.25 23.2 73.8 32 5.6 42.2 0 0
13:50 1025 30.27 855 25.25 23.4 74 31 5.6 42 0 0
13:55 1025 30.27 855 25.25 23.5 74.2 35 7.3 45.1 0 0
14:00 1025 30.27 854 25.22 23.9 75.1 33 6.7 44 0 0
14:05 1025 30.27 854 25.22 23.5 74.3 32 5.9 42.6 0 0
14:10 1025 30.27 854 25.22 23.6 74.4 31 5.5 42 0 0
14:15 1025 30.27 854 25.22 24 75.1 31 5.8 42.5 0 0
14:20 1025 30.27 854 25.22 23.5 74.3 32 6.1 42.9 0 0
14:25 1025 30.27 854 25.22 23.5 74.3 32 6 42.8 0 0
14:30 1025 30.27 854 25.22 23.3 73.9 31 5.4 41.7 0 0
14:35 1025 30.27 854 25.22 23.6 74.4 33 6.6 43.9 0 0
14:40 1025 30.27 854 25.22 24.1 75.3 32 6.4 43.6 0 0
14:45 1025 30.27 854 25.22 23.4 74 34 7 44.6 0 0
14:50 1025 30.27 854 25.22 23.5 74.2 31 5.5 41.9 0 0
14:55 1025 30.27 854 25.22 23.3 73.9 32 5.8 42.4 0 0
15:00 1025 30.27 854 25.22 23.2 73.7 31 5.4 41.8 0 0
15:05 1024 30.24 854 25.22 23.2 73.8 32 6 42.8 0 0
15:10 1024 30.24 854 25.22 23.1 73.5 32 5.8 42.5 0 0
15:15 1024 30.24 854 25.22 23 73.4 32 5.7 42.2 0 0
15:20 1024 30.24 853 25.19 23.1 73.5 31 5.3 41.6 0 0
15:25 1024 30.24 853 25.19 23.1 73.5 33 6 42.7 0 0
15:30 1024 30.24 853 25.19 23 73.4 32 5.8 42.4 0 0
15:35 1024 30.24 853 25.19 22.9 73.2 33 6.1 43.1 0 0
15:40 1024 30.24 853 25.19 22.8 73.1 33 6.1 43 0 0
15:45 1024 30.24 853 25.19 22.8 73 33 5.9 42.6 0 0
15:50 1024 30.24 853 25.19 22.7 72.8 33 5.9 42.7 0 0
15:55 1024 30.24 853 25.19 22.7 72.9 35 6.5 43.6 0 0
16:00 1024 30.24 853 25.19 22.6 72.7 33 5.9 42.7 0 0
16:05 1024 30.24 853 25.19 22.6 72.7 34 6.3 43.3 0 0
16:10 1024 30.24 853 25.19 22.5 72.6 35 6.6 43.8 0 0
16:15 1024 30.24 853 25.19 22.5 72.4 34 6.2 43.1 0 0
16:20 1024 30.24 853 25.19 22.4 72.4 35 6.3 43.4 0 0
16:25 1024 30.24 853 25.19 22.4 72.4 34 6 42.8 0 0
16:30 1024 30.24 853 25.19 22.3 72.1 35 6.3 43.3 0 0
16:35 1024 30.24 853 25.19 22.2 72 35 6.2 43.1 0 0
16:40 1024 30.24 853 25.19 22.1 71.8 36 6.4 43.5 0 0
16:45 1024 30.24 853 25.19 22 71.6 36 6.4 43.6 0 0
16:50 1024 30.24 853 25.19 21.9 71.3 37 6.7 44 0 0
16:55 1024 30.24 853 25.19 21.8 71.2 37 6.6 43.9 0 0
17:00 1024 30.24 853 25.19 21.8 71.2 36 6.2 43.1 0 0
17:05 1024 30.24 853 25.19 21.8 71.2 36 6.3 43.3 0 0
17:10 1024 30.24 853 25.19 21.8 71.3 37 6.5 43.7 0 0
17:15 1024 30.24 853 25.19 21.8 71.3 36 6.4 43.5 0 0
17:20 1024 30.24 853 25.19 21.8 71.2 36 6.2 43.2 0 0
17:25 1024 30.24 853 25.19 21.8 71.2 38 7 44.7 0 0
17:30 1024 30.24 853 25.19 21.7 71.1 37 6.6 43.9 0 0
17:35 1024 30.24 853 25.19 21.7 71.1 37 6.7 44.1 0 0
17:40 1024 30.24 853 25.19 21.8 71.2 37 6.7 44 0 0
17:45 1024 30.24 853 25.19 21.8 71.2 38 7 44.6 0 0
17:50 1023 30.21 853 25.19 21.7 71.1 38 7.2 44.9 0 0
17:55 1023 30.21 853 25.19 21.8 71.2 39 7.2 45 0 0
18:00 1023 30.21 853 25.19 21.8 71.2 38 7 44.7 0 0
18:05 1023 30.21 853 25.19 21.9 71.4 37 6.6 43.8 0 0
18:10 1023 30.21 853 25.19 21.9 71.5 37 6.8 44.3 0 0
18:15 1023 30.21 853 25.19 21.9 71.4 38 7.1 44.8 0 0
18:20 1023 30.21 853 25.19 21.8 71.3 38 6.9 44.5 0 0
18:25 1023 30.21 853 25.19 21.7 71.1 39 7.3 45.2 0 0
18:30 1023 30.21 853 25.19 21.6 70.9 39 7.2 45 0 0
18:35 1023 30.21 852 25.16 21.6 70.8 38 6.7 44.1 0 0
18:40 1023 30.21 852 25.16 21.6 70.9 39 7.2 44.9 0 0
18:45 1023 30.21 852 25.16 21.6 70.9 38 7 44.5 0 0
18:50 1023 30.21 852 25.16 21.5 70.7 39 7.2 45 0 0
18:55 1023 30.21 852 25.16 21.4 70.6 38 6.8 44.2 0 0
19:00 1023 30.21 852 25.16 21.4 70.6 39 6.9 44.5 0 0
19:05 1023 30.21 852 25.16 21.4 70.4 39 6.9 44.4 0 0
19:10 1023 30.21 852 25.16 21.2 70.2 39 7 44.6 0 0
19:15 1023 30.21 852 25.16 21.1 69.9 39 6.8 44.3 0 0
19:20 1023 30.21 852 25.16 20.9 69.5 41 7.4 45.3 0 0
19:25 1023 30.21 852 25.16 20.6 69 41 7.1 44.8 0 0
19:30 1023 30.21 852 25.16 20.5 68.8 43 7.6 45.7 0 0
19:35 1023 30.21 852 25.16 20.1 68.1 45 7.8 46.1 0 0
19:40 1023 30.21 852 25.16 19.7 67.5 46 7.8 46 0 0
19:45 1023 30.21 852 25.16 19.6 67.3 46 7.9 46.1 0 0
19:50 1023 30.21 852 25.16 19.5 67 46 7.8 46 0 0
19:55 1023 30.21 852 25.16 19.4 66.9 46 7.6 45.7 0 0
20:00 1023 30.21 852 25.16 19.5 67.1 46 7.6 45.7 0 0
20:05 1023 30.21 852 25.16 19.5 67 45 7.5 45.5 0 0
20:10 1023 30.21 852 25.16 19.3 66.7 48 8.1 46.6 0 0
20:15 1023 30.21 852 25.16 19 66.2 47 7.5 45.5 0 0
20:20 1023 30.21 852 25.16 19.4 66.9 45 7.3 45.2 0 0
20:25 1023 30.21 852 25.16 19.9 67.8 43 7.1 44.7 0 0
20:30 1023 30.21 852 25.16 20 68.1 43 7.3 45.1 0 0
20:35 1023 30.21 852 25.16 20 68.1 42 6.9 44.4 0 0
20:40 1023 30.21 852 25.16 20 68.1 42 7 44.5 0 0
20:45 1023 30.21 852 25.16 20 68 43 7.1 44.7 0 0
20:50 1023 30.21 852 25.16 20 68 41 6.6 43.9 0 0
20:55 1023 30.21 852 25.16 20.2 68.3 41 6.5 43.7 0 0
21:00 1023 30.21 852 25.16 20.2 68.4 40 6.5 43.6 0 0
21:05 1023 30.21 852 25.16 20.3 68.5 40 6.4 43.4 0 0
21:10 1023 30.21 852 25.16 20.2 68.4 40 6.5 43.7 0 0
21:15 1023 30.21 852 25.16 20.1 68.2 41 6.6 43.9 0 0
21:20 1023 30.21 852 25.16 19.9 67.9 42 6.7 44.1 0 0
21:25 1023 30.21 852 25.16 19.8 67.7 42 6.7 44 0 0
21:30 1023 30.21 852 25.16 19.7 67.5 42 6.5 43.7 0 0
21:35 1023 30.21 852 25.16 19.6 67.2 43 6.8 44.2 0 0
21:40 1023 30.21 852 25.16 19.4 67 43 6.7 44 0 0
21:45 1023 30.21 852 25.16 19.4 66.9 43 6.8 44.2 0 0
21:50 1023 30.21 852 25.16 19.3 66.7 44 6.9 44.4 0 0
21:55 1023 30.21 852 25.16 19.2 66.5 44 6.9 44.4 0 0
22:00 1023 30.21 852 25.16 19.2 66.5 44 6.8 44.3 0 0
22:05 1023 30.21 852 25.16 19.2 66.5 44 6.8 44.3 0 0
22:10 1023 30.21 852 25.16 19.1 66.3 45 7.1 44.7 0 0
22:15 1023 30.21 852 25.16 18.9 65.9 46 7.2 44.9 0 0
22:20 1023 30.21 852 25.16 18.6 65.5 47 7.1 44.8 0 0
22:25 1023 30.21 852 25.16 18.4 65 48 7.1 44.9 0 0
22:30 1023 30.21 852 25.16 18.2 64.8 47 6.8 44.2 0 0
22:35 1023 30.21 852 25.16 18.3 64.9 47 6.8 44.3 0 0
22:40 1023 30.21 852 25.16 18.3 64.9 47 6.9 44.5 0 0
22:45 1023 30.21 852 25.16 18 64.4 48 7 44.6 0 0
22:50 1023 30.21 852 25.16 17.9 64.2 49 7 44.6 0 0
22:55 1023 30.21 852 25.16 17.8 64 49 7 44.5 0 0
23:00 1023 30.21 852 25.16 17.7 63.8 49 7.1 44.7 0 0
23:05 1022 30.18 852 25.16 17.6 63.6 50 7.1 44.8 0 0
23:10 1022 30.18 852 25.16 17.4 63.3 50 7.1 44.8 0 0
23:15 1022 30.18 852 25.16 17.3 63.1 52 7.4 45.4 0 0
23:20 1022 30.18 852 25.16 16.8 62.3 54 7.6 45.7 0 0
23:25 1022 30.18 852 25.16 16.2 61.2 55 7.1 44.8 0 0
23:30 1022 30.18 852 25.16 16.4 61.4 54 7.2 45 0 0
23:35 1022 30.18 852 25.16 16.5 61.6 54 7.1 44.9 0 0
23:40 1022 30.18 852 25.16 16.7 62 53 7.2 45 0 0
23:45 1022 30.18 851 25.13 16.7 62 53 7.3 45.1 0 0
23:50 1022 30.18 851 25.13 16.6 61.9 54 7.3 45.2 0 0
23:55 1022 30.18 851 25.13 16.5 61.7 54 7.3 45.1 0 0
24:00 1022 30.18 851 25.13 16.3 61.4 55 7.4 45.3 0 0